sensor_id;sensor_type;location;lat;lon;timestamp;temperature;humidity
49184;DHT22;35021;49.214;12.270;2024-02-14T00:00:54;20.70;30.40
49184;DHT22;35021;49.214;12.270;2024-02-14T00:03:21;20.70;30.50
49184;DHT22;35021;49.214;12.270;2024-02-14T00:05:50;20.70;30.50
49184;DHT22;35021;49.214;12.270;2024-02-14T00:08:19;20.70;30.50
49184;DHT22;35021;49.214;12.270;2024-02-14T00:10:46;20.60;30.40
49184;DHT22;35021;49.214;12.270;2024-02-14T00:13:13;20.60;30.40
49184;DHT22;35021;49.214;12.270;2024-02-14T00:15:41;20.60;30.50
49184;DHT22;35021;49.214;12.270;2024-02-14T00:18:08;20.60;30.50
49184;DHT22;35021;49.214;12.270;2024-02-14T00:20:35;20.50;30.50
49184;DHT22;35021;49.214;12.270;2024-02-14T00:23:02;20.50;30.60
49184;DHT22;35021;49.214;12.270;2024-02-14T00:25:29;20.50;30.60
49184;DHT22;35021;49.214;12.270;2024-02-14T00:27:57;20.50;30.60
49184;DHT22;35021;49.214;12.270;2024-02-14T00:30:27;20.50;30.60
49184;DHT22;35021;49.214;12.270;2024-02-14T00:32:56;20.50;30.60
49184;DHT22;35021;49.214;12.270;2024-02-14T00:35:24;20.50;30.60
49184;DHT22;35021;49.214;12.270;2024-02-14T00:37:51;20.50;30.60
49184;DHT22;35021;49.214;12.270;2024-02-14T00:40:19;20.50;30.50
49184;DHT22;35021;49.214;12.270;2024-02-14T00:42:46;20.50;30.50
49184;DHT22;35021;49.214;12.270;2024-02-14T00:45:13;20.50;30.40
49184;DHT22;35021;49.214;12.270;2024-02-14T00:47:40;20.50;30.40
49184;DHT22;35021;49.214;12.270;2024-02-14T00:50:08;20.50;30.30
49184;DHT22;35021;49.214;12.270;2024-02-14T00:52:35;20.50;30.30
49184;DHT22;35021;49.214;12.270;2024-02-14T00:55:02;20.50;30.30
49184;DHT22;35021;49.214;12.270;2024-02-14T00:57:31;20.60;30.30
49184;DHT22;35021;49.214;12.270;2024-02-14T00:59:59;20.60;30.20
49184;DHT22;35021;49.214;12.270;2024-02-14T01:02:28;20.60;30.30
49184;DHT22;35021;49.214;12.270;2024-02-14T01:04:55;20.60;30.20
49184;DHT22;35021;49.214;12.270;2024-02-14T01:07:22;20.60;30.20
49184;DHT22;35021;49.214;12.270;2024-02-14T01:09:49;20.60;31.00
49184;DHT22;35021;49.214;12.270;2024-02-14T01:12:16;20.60;30.30
49184;DHT22;35021;49.214;12.270;2024-02-14T01:14:43;20.60;30.30
49184;DHT22;35021;49.214;12.270;2024-02-14T01:17:10;20.60;30.20
49184;DHT22;35021;49.214;12.270;2024-02-14T01:19:37;20.60;30.20
49184;DHT22;35021;49.214;12.270;2024-02-14T01:22:04;20.60;30.20
49184;DHT22;35021;49.214;12.270;2024-02-14T01:24:31;20.60;30.20
49184;DHT22;35021;49.214;12.270;2024-02-14T01:26:58;20.60;30.20
49184;DHT22;35021;49.214;12.270;2024-02-14T01:29:26;20.60;30.20
49184;DHT22;35021;49.214;12.270;2024-02-14T01:31:53;20.60;30.20
49184;DHT22;35021;49.214;12.270;2024-02-14T01:34:21;20.50;30.10
49184;DHT22;35021;49.214;12.270;2024-02-14T01:36:48;20.50;30.30
49184;DHT22;35021;49.214;12.270;2024-02-14T01:39:15;20.50;30.20
49184;DHT22;35021;49.214;12.270;2024-02-14T01:41:45;20.50;30.30
49184;DHT22;35021;49.214;12.270;2024-02-14T01:44:13;20.40;30.20
49184;DHT22;35021;49.214;12.270;2024-02-14T01:46:41;20.40;30.20
49184;DHT22;35021;49.214;12.270;2024-02-14T01:49:09;20.40;30.20
49184;DHT22;35021;49.214;12.270;2024-02-14T01:51:36;20.40;30.20
49184;DHT22;35021;49.214;12.270;2024-02-14T01:54:03;20.40;31.00
49184;DHT22;35021;49.214;12.270;2024-02-14T01:56:30;20.30;30.20
49184;DHT22;35021;49.214;12.270;2024-02-14T01:58:58;20.30;30.30
49184;DHT22;35021;49.214;12.270;2024-02-14T02:01:26;20.30;30.30
49184;DHT22;35021;49.214;12.270;2024-02-14T02:03:53;20.20;30.30
49184;DHT22;35021;49.214;12.270;2024-02-14T02:06:20;20.20;30.30
49184;DHT22;35021;49.214;12.270;2024-02-14T02:08:47;20.30;30.30
49184;DHT22;35021;49.214;12.270;2024-02-14T02:11:14;20.30;30.30
49184;DHT22;35021;49.214;12.270;2024-02-14T02:13:41;20.30;30.20
49184;DHT22;35021;49.214;12.270;2024-02-14T02:16:09;20.30;30.20
49184;DHT22;35021;49.214;12.270;2024-02-14T02:18:36;20.30;30.10
49184;DHT22;35021;49.214;12.270;2024-02-14T02:21:04;20.30;30.10
49184;DHT22;35021;49.214;12.270;2024-02-14T02:23:34;20.30;30.20
49184;DHT22;35021;49.214;12.270;2024-02-14T02:26:02;20.30;30.20
49184;DHT22;35021;49.214;12.270;2024-02-14T02:28:29;20.30;30.30
49184;DHT22;35021;49.214;12.270;2024-02-14T02:30:56;20.30;30.30
49184;DHT22;35021;49.214;12.270;2024-02-14T02:33:23;20.30;30.40
49184;DHT22;35021;49.214;12.270;2024-02-14T02:35:50;20.30;30.40
49184;DHT22;35021;49.214;12.270;2024-02-14T02:38:17;20.30;30.40
49184;DHT22;35021;49.214;12.270;2024-02-14T02:40:46;20.30;30.40
49184;DHT22;35021;49.214;12.270;2024-02-14T02:43:13;20.30;30.40
49184;DHT22;35021;49.214;12.270;2024-02-14T02:45:40;20.30;30.30
49184;DHT22;35021;49.214;12.270;2024-02-14T02:48:07;20.40;30.30
49184;DHT22;35021;49.214;12.270;2024-02-14T02:50:34;20.50;30.20
49184;DHT22;35021;49.214;12.270;2024-02-14T02:53:02;20.50;30.80
49184;DHT22;35021;49.214;12.270;2024-02-14T02:55:28;20.60;30.00
49184;DHT22;35021;49.214;12.270;2024-02-14T02:57:55;20.70;30.00
49184;DHT22;35021;49.214;12.270;2024-02-14T03:00:23;20.80;29.90
49184;DHT22;35021;49.214;12.270;2024-02-14T03:02:49;20.80;29.80
49184;DHT22;35021;49.214;12.270;2024-02-14T03:05:17;20.90;29.70
49184;DHT22;35021;49.214;12.270;2024-02-14T03:07:50;21.00;29.70
49184;DHT22;35021;49.214;12.270;2024-02-14T03:10:17;21.10;29.60
49184;DHT22;35021;49.214;12.270;2024-02-14T03:12:46;21.10;29.50
49184;DHT22;35021;49.214;12.270;2024-02-14T03:15:14;21.20;29.50
49184;DHT22;35021;49.214;12.270;2024-02-14T03:17:42;21.20;29.50
49184;DHT22;35021;49.214;12.270;2024-02-14T03:20:12;21.10;29.60
49184;DHT22;35021;49.214;12.270;2024-02-14T03:22:44;21.10;29.60
49184;DHT22;35021;49.214;12.270;2024-02-14T03:25:12;21.00;29.70
49184;DHT22;35021;49.214;12.270;2024-02-14T03:27:40;21.00;29.80
49184;DHT22;35021;49.214;12.270;2024-02-14T03:30:07;21.00;29.80
49184;DHT22;35021;49.214;12.270;2024-02-14T03:32:34;21.00;29.80
49184;DHT22;35021;49.214;12.270;2024-02-14T03:35:01;21.00;29.70
49184;DHT22;35021;49.214;12.270;2024-02-14T03:37:31;21.10;29.70
49184;DHT22;35021;49.214;12.270;2024-02-14T03:39:58;21.10;29.60
49184;DHT22;35021;49.214;12.270;2024-02-14T03:42:26;21.20;29.60
49184;DHT22;35021;49.214;12.270;2024-02-14T03:44:53;21.20;29.50
49184;DHT22;35021;49.214;12.270;2024-02-14T03:47:22;21.30;29.50
49184;DHT22;35021;49.214;12.270;2024-02-14T03:49:49;21.30;29.40
49184;DHT22;35021;49.214;12.270;2024-02-14T03:52:17;21.30;29.40
49184;DHT22;35021;49.214;12.270;2024-02-14T03:54:44;21.30;29.40
49184;DHT22;35021;49.214;12.270;2024-02-14T03:57:11;21.30;29.40
49184;DHT22;35021;49.214;12.270;2024-02-14T03:59:39;21.30;29.40
49184;DHT22;35021;49.214;12.270;2024-02-14T04:02:06;21.30;29.40
49184;DHT22;35021;49.214;12.270;2024-02-14T04:04:37;21.30;29.50
49184;DHT22;35021;49.214;12.270;2024-02-14T04:07:05;21.30;29.50
49184;DHT22;35021;49.214;12.270;2024-02-14T04:09:32;21.20;29.50
49184;DHT22;35021;49.214;12.270;2024-02-14T04:11:59;21.20;29.50
49184;DHT22;35021;49.214;12.270;2024-02-14T04:14:26;21.20;29.60
49184;DHT22;35021;49.214;12.270;2024-02-14T04:16:54;21.20;29.50
49184;DHT22;35021;49.214;12.270;2024-02-14T04:19:21;21.30;29.50
49184;DHT22;35021;49.214;12.270;2024-02-14T04:21:48;21.30;29.50
49184;DHT22;35021;49.214;12.270;2024-02-14T04:24:15;21.30;29.40
49184;DHT22;35021;49.214;12.270;2024-02-14T04:26:42;21.30;29.40
49184;DHT22;35021;49.214;12.270;2024-02-14T04:29:10;21.40;29.40
49184;DHT22;35021;49.214;12.270;2024-02-14T04:31:37;21.40;29.40
49184;DHT22;35021;49.214;12.270;2024-02-14T04:34:04;21.40;29.40
49184;DHT22;35021;49.214;12.270;2024-02-14T04:36:34;21.40;29.40
49184;DHT22;35021;49.214;12.270;2024-02-14T04:39:02;21.40;29.40
49184;DHT22;35021;49.214;12.270;2024-02-14T04:41:30;21.40;29.40
49184;DHT22;35021;49.214;12.270;2024-02-14T04:43:57;21.30;29.40
49184;DHT22;35021;49.214;12.270;2024-02-14T04:46:24;21.30;29.50
49184;DHT22;35021;49.214;12.270;2024-02-14T04:48:51;21.20;29.50
49184;DHT22;35021;49.214;12.270;2024-02-14T04:51:18;21.20;29.60
49184;DHT22;35021;49.214;12.270;2024-02-14T04:53:45;21.20;29.60
49184;DHT22;35021;49.214;12.270;2024-02-14T04:56:12;21.20;29.60
49184;DHT22;35021;49.214;12.270;2024-02-14T04:58:39;21.20;29.60
49184;DHT22;35021;49.214;12.270;2024-02-14T05:01:06;21.30;29.60
49184;DHT22;35021;49.214;12.270;2024-02-14T05:03:34;21.30;29.60
49184;DHT22;35021;49.214;12.270;2024-02-14T05:06:01;21.40;29.50
49184;DHT22;35021;49.214;12.270;2024-02-14T05:08:29;21.40;29.40
49184;DHT22;35021;49.214;12.270;2024-02-14T05:10:56;21.50;29.40
49184;DHT22;35021;49.214;12.270;2024-02-14T05:13:23;21.50;29.30
49184;DHT22;35021;49.214;12.270;2024-02-14T05:15:50;21.60;29.40
49184;DHT22;35021;49.214;12.270;2024-02-14T05:18:18;21.60;29.30
49184;DHT22;35021;49.214;12.270;2024-02-14T05:20:45;21.60;29.30
49184;DHT22;35021;49.214;12.270;2024-02-14T05:23:13;21.50;29.30
49184;DHT22;35021;49.214;12.270;2024-02-14T05:25:40;21.50;29.40
49184;DHT22;35021;49.214;12.270;2024-02-14T05:28:07;21.40;29.50
49184;DHT22;35021;49.214;12.270;2024-02-14T05:30:34;21.30;29.50
49184;DHT22;35021;49.214;12.270;2024-02-14T05:33:03;21.20;29.60
49184;DHT22;35021;49.214;12.270;2024-02-14T05:35:30;21.20;29.70
49184;DHT22;35021;49.214;12.270;2024-02-14T05:37:57;21.20;29.80
49184;DHT22;35021;49.214;12.270;2024-02-14T05:40:24;21.20;29.70
49184;DHT22;35021;49.214;12.270;2024-02-14T05:42:51;21.20;29.80
49184;DHT22;35021;49.214;12.270;2024-02-14T05:45:18;21.30;29.80
49184;DHT22;35021;49.214;12.270;2024-02-14T05:47:45;21.30;29.80
49184;DHT22;35021;49.214;12.270;2024-02-14T05:50:12;21.40;29.70
49184;DHT22;35021;49.214;12.270;2024-02-14T05:52:40;21.40;29.70
49184;DHT22;35021;49.214;12.270;2024-02-14T05:55:07;21.50;29.70
49184;DHT22;35021;49.214;12.270;2024-02-14T05:57:35;21.50;29.70
49184;DHT22;35021;49.214;12.270;2024-02-14T06:00:02;21.50;29.70
49184;DHT22;35021;49.214;12.270;2024-02-14T06:02:30;21.50;29.70
49184;DHT22;35021;49.214;12.270;2024-02-14T06:04:57;21.40;29.70
49184;DHT22;35021;49.214;12.270;2024-02-14T06:07:24;21.40;29.70
49184;DHT22;35021;49.214;12.270;2024-02-14T06:09:51;21.40;29.70
49184;DHT22;35021;49.214;12.270;2024-02-14T06:12:18;21.30;29.70
49184;DHT22;35021;49.214;12.270;2024-02-14T06:14:47;21.30;29.80
49184;DHT22;35021;49.214;12.270;2024-02-14T06:17:14;21.20;29.80
49184;DHT22;35021;49.214;12.270;2024-02-14T06:19:41;21.30;29.80
49184;DHT22;35021;49.214;12.270;2024-02-14T06:22:08;21.30;29.80
49184;DHT22;35021;49.214;12.270;2024-02-14T06:24:37;21.30;29.90
49184;DHT22;35021;49.214;12.270;2024-02-14T06:27:04;21.30;29.90
49184;DHT22;35021;49.214;12.270;2024-02-14T06:29:31;21.40;29.90
49184;DHT22;35021;49.214;12.270;2024-02-14T06:31:58;21.50;30.00
49184;DHT22;35021;49.214;12.270;2024-02-14T06:34:25;21.60;30.00
49184;DHT22;35021;49.214;12.270;2024-02-14T06:36:54;21.60;30.00
49184;DHT22;35021;49.214;12.270;2024-02-14T06:39:21;21.60;30.00
49184;DHT22;35021;49.214;12.270;2024-02-14T06:41:48;21.60;30.00
49184;DHT22;35021;49.214;12.270;2024-02-14T06:44:15;21.60;30.00
49184;DHT22;35021;49.214;12.270;2024-02-14T06:46:42;21.60;30.00
49184;DHT22;35021;49.214;12.270;2024-02-14T06:49:09;21.60;30.10
49184;DHT22;35021;49.214;12.270;2024-02-14T06:51:36;21.60;30.20
49184;DHT22;35021;49.214;12.270;2024-02-14T06:54:03;21.50;30.30
49184;DHT22;35021;49.214;12.270;2024-02-14T06:56:30;21.50;30.50
49184;DHT22;35021;49.214;12.270;2024-02-14T06:58:57;21.30;30.70
49184;DHT22;35021;49.214;12.270;2024-02-14T07:01:27;21.20;30.90
49184;DHT22;35021;49.214;12.270;2024-02-14T07:03:56;21.20;31.10
49184;DHT22;35021;49.214;12.270;2024-02-14T07:06:23;21.10;31.20
49184;DHT22;35021;49.214;12.270;2024-02-14T07:08:50;21.10;31.30
49184;DHT22;35021;49.214;12.270;2024-02-14T07:11:17;21.10;31.30
49184;DHT22;35021;49.214;12.270;2024-02-14T07:13:44;21.10;31.40
49184;DHT22;35021;49.214;12.270;2024-02-14T07:16:11;21.20;31.40
49184;DHT22;35021;49.214;12.270;2024-02-14T07:18:38;21.20;31.30
49184;DHT22;35021;49.214;12.270;2024-02-14T07:21:06;21.30;31.40
49184;DHT22;35021;49.214;12.270;2024-02-14T07:23:33;21.30;31.40
49184;DHT22;35021;49.214;12.270;2024-02-14T07:26:01;21.30;31.30
49184;DHT22;35021;49.214;12.270;2024-02-14T07:28:28;21.30;31.40
49184;DHT22;35021;49.214;12.270;2024-02-14T07:30:55;21.20;31.40
49184;DHT22;35021;49.214;12.270;2024-02-14T07:33:22;21.20;31.50
49184;DHT22;35021;49.214;12.270;2024-02-14T07:35:50;21.20;31.70
49184;DHT22;35021;49.214;12.270;2024-02-14T07:38:17;21.10;31.80
49184;DHT22;35021;49.214;12.270;2024-02-14T07:40:44;21.10;31.90
49184;DHT22;35021;49.214;12.270;2024-02-14T07:43:11;21.00;32.00
49184;DHT22;35021;49.214;12.270;2024-02-14T07:45:38;21.00;32.00
49184;DHT22;35021;49.214;12.270;2024-02-14T07:48:05;21.00;32.00
49184;DHT22;35021;49.214;12.270;2024-02-14T07:50:32;21.00;32.10
49184;DHT22;35021;49.214;12.270;2024-02-14T07:53:01;21.10;32.20
49184;DHT22;35021;49.214;12.270;2024-02-14T07:55:28;21.10;32.20
49184;DHT22;35021;49.214;12.270;2024-02-14T07:57:55;21.10;32.20
49184;DHT22;35021;49.214;12.270;2024-02-14T08:00:22;21.20;32.20
49184;DHT22;35021;49.214;12.270;2024-02-14T08:02:51;21.20;32.20
49184;DHT22;35021;49.214;12.270;2024-02-14T08:05:19;21.30;32.20
49184;DHT22;35021;49.214;12.270;2024-02-14T08:07:46;21.30;32.20
49184;DHT22;35021;49.214;12.270;2024-02-14T08:10:13;21.30;32.30
49184;DHT22;35021;49.214;12.270;2024-02-14T08:12:40;21.20;32.30
49184;DHT22;35021;49.214;12.270;2024-02-14T08:15:07;21.20;32.40
49184;DHT22;35021;49.214;12.270;2024-02-14T08:17:34;21.10;32.40
49184;DHT22;35021;49.214;12.270;2024-02-14T08:20:03;21.10;32.50
49184;DHT22;35021;49.214;12.270;2024-02-14T08:22:31;21.00;32.60
49184;DHT22;35021;49.214;12.270;2024-02-14T08:24:58;21.00;32.70
49184;DHT22;35021;49.214;12.270;2024-02-14T08:27:25;21.00;32.80
49184;DHT22;35021;49.214;12.270;2024-02-14T08:29:54;21.00;32.80
49184;DHT22;35021;49.214;12.270;2024-02-14T08:32:22;21.00;32.80
49184;DHT22;35021;49.214;12.270;2024-02-14T08:34:52;21.10;32.80
49184;DHT22;35021;49.214;12.270;2024-02-14T08:37:19;21.10;32.80
49184;DHT22;35021;49.214;12.270;2024-02-14T08:39:46;21.20;32.80
49184;DHT22;35021;49.214;12.270;2024-02-14T08:42:13;21.20;32.70
49184;DHT22;35021;49.214;12.270;2024-02-14T08:44:40;21.30;32.70
49184;DHT22;35021;49.214;12.270;2024-02-14T08:47:07;21.30;32.70
49184;DHT22;35021;49.214;12.270;2024-02-14T08:49:35;21.40;32.70
49184;DHT22;35021;49.214;12.270;2024-02-14T08:52:03;21.40;32.70
49184;DHT22;35021;49.214;12.270;2024-02-14T08:54:31;21.40;32.80
49184;DHT22;35021;49.214;12.270;2024-02-14T08:56:59;21.40;32.80
49184;DHT22;35021;49.214;12.270;2024-02-14T08:59:26;21.30;32.80
49184;DHT22;35021;49.214;12.270;2024-02-14T09:01:53;21.30;32.90
49184;DHT22;35021;49.214;12.270;2024-02-14T09:04:20;21.30;33.00
49184;DHT22;35021;49.214;12.270;2024-02-14T09:06:50;21.20;33.10
49184;DHT22;35021;49.214;12.270;2024-02-14T09:09:17;21.20;33.20
49184;DHT22;35021;49.214;12.270;2024-02-14T09:11:46;21.20;33.30
49184;DHT22;35021;49.214;12.270;2024-02-14T09:14:13;21.10;33.30
49184;DHT22;35021;49.214;12.270;2024-02-14T09:16:41;21.20;33.40
49184;DHT22;35021;49.214;12.270;2024-02-14T09:19:08;21.20;33.40
49184;DHT22;35021;49.214;12.270;2024-02-14T09:21:36;21.20;33.40
49184;DHT22;35021;49.214;12.270;2024-02-14T09:24:03;21.20;33.30
49184;DHT22;35021;49.214;12.270;2024-02-14T09:26:31;21.30;33.40
49184;DHT22;35021;49.214;12.270;2024-02-14T09:28:58;21.30;33.90
49184;DHT22;35021;49.214;12.270;2024-02-14T09:31:25;21.30;33.10
49184;DHT22;35021;49.214;12.270;2024-02-14T09:33:52;21.40;33.10
49184;DHT22;35021;49.214;12.270;2024-02-14T09:36:24;21.30;33.10
49184;DHT22;35021;49.214;12.270;2024-02-14T09:38:51;21.30;33.20
49184;DHT22;35021;49.214;12.270;2024-02-14T09:41:21;21.30;33.20
49184;DHT22;35021;49.214;12.270;2024-02-14T09:43:49;21.30;33.40
49184;DHT22;35021;49.214;12.270;2024-02-14T09:46:16;21.30;33.30
49184;DHT22;35021;49.214;12.270;2024-02-14T09:48:44;21.20;33.30
49184;DHT22;35021;49.214;12.270;2024-02-14T09:51:11;21.20;33.40
49184;DHT22;35021;49.214;12.270;2024-02-14T09:53:39;21.20;33.50
49184;DHT22;35021;49.214;12.270;2024-02-14T09:56:08;21.20;33.50
49184;DHT22;35021;49.214;12.270;2024-02-14T09:58:35;21.20;33.60
49184;DHT22;35021;49.214;12.270;2024-02-14T10:01:03;21.20;33.60
49184;DHT22;35021;49.214;12.270;2024-02-14T10:03:31;21.20;33.70
49184;DHT22;35021;49.214;12.270;2024-02-14T10:05:59;21.20;33.70
49184;DHT22;35021;49.214;12.270;2024-02-14T10:08:26;21.20;33.70
49184;DHT22;35021;49.214;12.270;2024-02-14T10:10:53;21.20;33.70
49184;DHT22;35021;49.214;12.270;2024-02-14T10:13:26;21.30;33.80
49184;DHT22;35021;49.214;12.270;2024-02-14T10:15:53;21.30;33.70
49184;DHT22;35021;49.214;12.270;2024-02-14T10:18:21;21.30;33.70
49184;DHT22;35021;49.214;12.270;2024-02-14T10:20:55;21.20;33.70
49184;DHT22;35021;49.214;12.270;2024-02-14T10:23:23;21.20;33.70
49184;DHT22;35021;49.214;12.270;2024-02-14T10:25:52;21.20;33.80
49184;DHT22;35021;49.214;12.270;2024-02-14T10:28:20;21.20;33.90
49184;DHT22;35021;49.214;12.270;2024-02-14T10:30:58;21.20;33.80
49184;DHT22;35021;49.214;12.270;2024-02-14T10:33:29;21.20;33.80
49184;DHT22;35021;49.214;12.270;2024-02-14T10:35:57;21.30;33.90
49184;DHT22;35021;49.214;12.270;2024-02-14T10:38:32;21.30;33.80
49184;DHT22;35021;49.214;12.270;2024-02-14T10:41:02;21.40;33.70
49184;DHT22;35021;49.214;12.270;2024-02-14T10:43:30;21.40;33.70
49184;DHT22;35021;49.214;12.270;2024-02-14T10:45:59;21.50;33.60
49184;DHT22;35021;49.214;12.270;2024-02-14T10:48:27;21.60;33.60
49184;DHT22;35021;49.214;12.270;2024-02-14T10:50:58;21.60;33.50
49184;DHT22;35021;49.214;12.270;2024-02-14T10:53:28;21.70;33.40
49184;DHT22;35021;49.214;12.270;2024-02-14T10:55:56;21.80;33.40
49184;DHT22;35021;49.214;12.270;2024-02-14T10:58:25;21.80;33.40
49184;DHT22;35021;49.214;12.270;2024-02-14T11:00:55;21.90;33.30
49184;DHT22;35021;49.214;12.270;2024-02-14T11:03:22;21.90;33.20
49184;DHT22;35021;49.214;12.270;2024-02-14T11:05:49;22.00;33.20
49184;DHT22;35021;49.214;12.270;2024-02-14T11:08:20;22.00;33.10
49184;DHT22;35021;49.214;12.270;2024-02-14T11:10:54;22.10;33.10
49184;DHT22;35021;49.214;12.270;2024-02-14T11:13:26;22.20;33.10
49184;DHT22;35021;49.214;12.270;2024-02-14T11:16:02;22.20;33.10
49184;DHT22;35021;49.214;12.270;2024-02-14T11:18:31;22.30;33.20
49184;DHT22;35021;49.214;12.270;2024-02-14T11:21:02;22.40;33.90
49184;DHT22;35021;49.214;12.270;2024-02-14T11:23:32;22.40;33.20
49184;DHT22;35021;49.214;12.270;2024-02-14T11:26:00;22.50;33.30
49184;DHT22;35021;49.214;12.270;2024-02-14T11:28:28;22.50;33.30
49184;DHT22;35021;49.214;12.270;2024-02-14T11:31:01;22.60;33.30
49184;DHT22;35021;49.214;12.270;2024-02-14T11:33:31;22.70;33.30
49184;DHT22;35021;49.214;12.270;2024-02-14T11:36:00;22.70;33.90
49184;DHT22;35021;49.214;12.270;2024-02-14T11:38:34;22.80;33.30
49184;DHT22;35021;49.214;12.270;2024-02-14T11:41:01;22.70;33.40
49184;DHT22;35021;49.214;12.270;2024-02-14T11:43:30;22.70;33.40
49184;DHT22;35021;49.214;12.270;2024-02-14T11:45:58;22.80;33.60
49184;DHT22;35021;49.214;12.270;2024-02-14T11:48:26;22.80;33.60
49184;DHT22;35021;49.214;12.270;2024-02-14T11:50:53;22.80;33.40
49184;DHT22;35021;49.214;12.270;2024-02-14T11:53:21;22.80;33.50
49184;DHT22;35021;49.214;12.270;2024-02-14T11:55:48;22.80;33.50
49184;DHT22;35021;49.214;12.270;2024-02-14T11:58:16;22.90;33.50
49184;DHT22;35021;49.214;12.270;2024-02-14T12:00:43;22.90;34.20
49184;DHT22;35021;49.214;12.270;2024-02-14T12:03:18;22.90;33.40
49184;DHT22;35021;49.214;12.270;2024-02-14T12:06:18;22.90;33.50
49184;DHT22;35021;49.214;12.270;2024-02-14T12:08:46;22.90;33.50
49184;DHT22;35021;49.214;12.270;2024-02-14T12:11:13;22.90;33.50
49184;DHT22;35021;49.214;12.270;2024-02-14T12:13:40;22.90;33.50
49184;DHT22;35021;49.214;12.270;2024-02-14T12:16:10;22.80;33.60
49184;DHT22;35021;49.214;12.270;2024-02-14T12:18:41;22.70;33.80
49184;DHT22;35021;49.214;12.270;2024-02-14T12:21:08;22.70;33.90
49184;DHT22;35021;49.214;12.270;2024-02-14T12:23:36;22.60;34.00
49184;DHT22;35021;49.214;12.270;2024-02-14T12:26:04;22.50;34.10
49184;DHT22;35021;49.214;12.270;2024-02-14T12:28:31;22.40;34.20
49184;DHT22;35021;49.214;12.270;2024-02-14T12:30:58;22.30;34.30
49184;DHT22;35021;49.214;12.270;2024-02-14T12:33:26;22.30;34.40
49184;DHT22;35021;49.214;12.270;2024-02-14T12:35:54;22.30;34.50
49184;DHT22;35021;49.214;12.270;2024-02-14T12:38:23;22.30;34.50
49184;DHT22;35021;49.214;12.270;2024-02-14T12:40:58;22.20;34.50
49184;DHT22;35021;49.214;12.270;2024-02-14T12:43:25;22.30;34.60
49184;DHT22;35021;49.214;12.270;2024-02-14T12:45:55;22.30;34.50
49184;DHT22;35021;49.214;12.270;2024-02-14T12:48:22;22.30;34.50
49184;DHT22;35021;49.214;12.270;2024-02-14T12:50:51;22.40;34.50
49184;DHT22;35021;49.214;12.270;2024-02-14T12:53:19;22.40;34.40
49184;DHT22;35021;49.214;12.270;2024-02-14T12:55:46;22.50;34.30
49184;DHT22;35021;49.214;12.270;2024-02-14T12:58:14;22.50;34.20
49184;DHT22;35021;49.214;12.270;2024-02-14T13:00:41;22.60;34.80
49184;DHT22;35021;49.214;12.270;2024-02-14T13:03:11;22.70;34.00
49184;DHT22;35021;49.214;12.270;2024-02-14T13:05:42;22.70;34.00
49184;DHT22;35021;49.214;12.270;2024-02-14T13:08:09;22.70;33.90
49184;DHT22;35021;49.214;12.270;2024-02-14T13:10:39;22.80;33.80
49184;DHT22;35021;49.214;12.270;2024-02-14T13:13:07;22.80;33.80
49184;DHT22;35021;49.214;12.270;2024-02-14T13:15:36;22.80;33.70
49184;DHT22;35021;49.214;12.270;2024-02-14T13:18:03;22.80;33.70
49184;DHT22;35021;49.214;12.270;2024-02-14T13:20:31;22.80;34.40
49184;DHT22;35021;49.214;12.270;2024-02-14T13:22:59;22.70;33.80
49184;DHT22;35021;49.214;12.270;2024-02-14T13:25:26;22.70;33.80
49184;DHT22;35021;49.214;12.270;2024-02-14T13:27:53;22.60;33.90
49184;DHT22;35021;49.214;12.270;2024-02-14T13:30:24;22.50;34.00
49184;DHT22;35021;49.214;12.270;2024-02-14T13:32:51;22.40;34.00
49184;DHT22;35021;49.214;12.270;2024-02-14T13:35:19;22.40;34.20
49184;DHT22;35021;49.214;12.270;2024-02-14T13:37:49;22.40;34.30
49184;DHT22;35021;49.214;12.270;2024-02-14T13:40:16;22.40;34.30
49184;DHT22;35021;49.214;12.270;2024-02-14T13:42:44;22.40;34.30
49184;DHT22;35021;49.214;12.270;2024-02-14T13:45:11;22.40;34.40
49184;DHT22;35021;49.214;12.270;2024-02-14T13:47:39;22.40;34.40
49184;DHT22;35021;49.214;12.270;2024-02-14T13:50:07;22.50;34.40
49184;DHT22;35021;49.214;12.270;2024-02-14T13:52:38;22.50;34.30
49184;DHT22;35021;49.214;12.270;2024-02-14T13:55:08;22.60;34.30
49184;DHT22;35021;49.214;12.270;2024-02-14T13:57:38;22.60;34.20
49184;DHT22;35021;49.214;12.270;2024-02-14T14:00:08;22.70;34.30
49184;DHT22;35021;49.214;12.270;2024-02-14T14:02:39;22.70;34.30
49184;DHT22;35021;49.214;12.270;2024-02-14T14:05:09;22.70;34.20
49184;DHT22;35021;49.214;12.270;2024-02-14T14:07:43;22.60;35.00
49184;DHT22;35021;49.214;12.270;2024-02-14T14:10:24;22.60;34.20
49184;DHT22;35021;49.214;12.270;2024-02-14T14:12:55;22.60;34.30
49184;DHT22;35021;49.214;12.270;2024-02-14T14:15:25;22.60;34.30
49184;DHT22;35021;49.214;12.270;2024-02-14T14:17:53;22.50;34.40
49184;DHT22;35021;49.214;12.270;2024-02-14T14:20:21;22.40;34.50
49184;DHT22;35021;49.214;12.270;2024-02-14T14:22:48;22.40;34.70
49184;DHT22;35021;49.214;12.270;2024-02-14T14:25:15;22.40;34.80
49184;DHT22;35021;49.214;12.270;2024-02-14T14:27:45;22.30;34.70
49184;DHT22;35021;49.214;12.270;2024-02-14T14:30:12;22.40;34.80
49184;DHT22;35021;49.214;12.270;2024-02-14T14:32:40;22.40;34.80
49184;DHT22;35021;49.214;12.270;2024-02-14T14:35:08;22.40;34.70
49184;DHT22;35021;49.214;12.270;2024-02-14T14:37:38;22.40;34.70
49184;DHT22;35021;49.214;12.270;2024-02-14T14:40:05;22.50;34.70
49184;DHT22;35021;49.214;12.270;2024-02-14T14:42:35;22.50;34.70
49184;DHT22;35021;49.214;12.270;2024-02-14T14:45:02;22.60;34.80
49184;DHT22;35021;49.214;12.270;2024-02-14T14:47:31;22.60;34.70
49184;DHT22;35021;49.214;12.270;2024-02-14T14:49:58;22.60;34.60
49184;DHT22;35021;49.214;12.270;2024-02-14T14:52:26;22.60;34.60
49184;DHT22;35021;49.214;12.270;2024-02-14T14:54:53;22.70;34.60
49184;DHT22;35021;49.214;12.270;2024-02-14T14:57:20;22.70;34.50
49184;DHT22;35021;49.214;12.270;2024-02-14T14:59:48;22.70;34.50
49184;DHT22;35021;49.214;12.270;2024-02-14T15:02:15;22.70;34.50
49184;DHT22;35021;49.214;12.270;2024-02-14T15:04:42;22.70;34.50
49184;DHT22;35021;49.214;12.270;2024-02-14T15:07:13;22.70;34.60
49184;DHT22;35021;49.214;12.270;2024-02-14T15:09:41;22.70;34.60
49184;DHT22;35021;49.214;12.270;2024-02-14T15:12:09;22.60;34.60
49184;DHT22;35021;49.214;12.270;2024-02-14T15:14:37;22.60;34.80
49184;DHT22;35021;49.214;12.270;2024-02-14T15:17:05;22.50;34.90
49184;DHT22;35021;49.214;12.270;2024-02-14T15:19:32;22.40;35.00